Time;durP1;ratioP1;P1;durP2;ratioP2;P2;SDS_P1;SDS_P2;PMS_P1;PMS_P2;Temp;Humidity;BMP_temperature;BMP_pressure;BME280_temperature;BME280_humidity;BME280_pressure;Samples;Min_cycle;Max_cycle;Signal;HPM_P1;HPM_P2
2020/12/25 00:00:45;;;;;;;5.87;3.83;;;;;;;;;;4340660;32;20092;-66
2020/12/25 00:03:14;;;;;;;5.97;4.37;;;;;;;;;;4353070;32;20082;-66
2020/12/25 00:05:44;;;;;;;5.90;4.15;;;;;;;;;;4365255;32;20077;-67
2020/12/25 00:08:10;;;;;;;5.87;4.55;;;;;;;;;;4353111;32;20448;-66
2020/12/25 00:10:35;;;;;;;5.82;4.15;;;;;;;;;;4352678;32;20077;-67
2020/12/25 00:13:01;;;;;;;6.18;4.22;;;;;;;;;;4353264;32;20078;-67
2020/12/25 00:15:27;;;;;;;;;;;;;;;;;;4370251;32;20090;-69
2020/12/25 00:17:52;;;;;;;6.62;4.25;;;;;;;;;;4366793;32;19993;-67
2020/12/25 00:20:18;;;;;;;6.65;4.50;;;;;;;;;;4378965;32;20070;-67
2020/12/25 00:22:44;;;;;;;;;;;;;;;;;;4365365;32;20074;-69
2020/12/25 00:25:09;;;;;;;6.72;4.32;;;;;;;;;;4365077;32;19969;-66
2020/12/25 00:27:35;;;;;;;;;;;;;;;;;;4353473;32;20428;-65
2020/12/25 00:30:01;;;;;;;6.75;4.95;;;;;;;;;;4364934;32;20004;-66
2020/12/25 00:32:27;;;;;;;6.65;4.93;;;;;;;;;;4337682;32;20107;-67
2020/12/25 00:34:52;;;;;;;;;;;;;;;;;;4350600;32;20518;-65
2020/12/25 00:37:18;;;;;;;7.32;4.80;;;;;;;;;;4363615;32;19970;-66
2020/12/25 00:39:44;;;;;;;7.50;4.97;;;;;;;;;;4362313;32;20114;-67
2020/12/25 00:42:10;;;;;;;6.95;4.78;;;;;;;;;;4350461;32;20086;-66
2020/12/25 00:44:36;;;;;;;7.57;5.60;;;;;;;;;;4362033;32;20584;-66
2020/12/25 00:47:01;;;;;;;6.95;4.65;;;;;;;;;;4363649;32;20105;-66
2020/12/25 00:49:27;;;;;;;8.18;5.37;;;;;;;;;;4350024;32;20086;-65
2020/12/25 00:51:53;;;;;;;9.00;5.32;;;;;;;;;;4350066;32;20107;-66
2020/12/25 00:54:18;;;;;;;;;;;;;;;;;;4350317;32;20505;-65
2020/12/25 00:56:44;;;;;;;7.97;5.20;;;;;;;;;;4361867;32;19985;-67
2020/12/25 00:59:10;;;;;;;8.38;5.40;;;;;;;;;;4362026;32;20067;-66
2020/12/25 01:01:37;;;;;;;8.68;5.65;;;;;;;;;;4337193;32;20117;-66
2020/12/25 01:04:03;;;;;;;7.32;4.72;;;;;;;;;;4361871;32;20063;-66
2020/12/25 01:06:29;;;;;;;8.25;5.28;;;;;;;;;;4348639;32;20075;-67
2020/12/25 01:08:54;;;;;;;7.50;5.40;;;;;;;;;;4361866;32;20071;-66
2020/12/25 01:11:22;;;;;;;;;;;;;;;;;;4349628;32;20125;-66
2020/12/25 01:13:48;;;;;;;7.28;5.60;;;;;;;;;;4361993;32;20036;-67
2020/12/25 01:16:15;;;;;;;8.10;5.30;;;;;;;;;;4349401;32;20106;-67
2020/12/25 01:18:43;;;;;;;8.43;5.72;;;;;;;;;;4337309;32;20086;-66
2020/12/25 01:21:09;;;;;;;8.80;5.72;;;;;;;;;;4351994;32;20078;-66
2020/12/25 01:23:35;;;;;;;7.93;5.25;;;;;;;;;;4351375;32;20081;-67
2020/12/25 01:26:01;;;;;;;8.55;6.18;;;;;;;;;;4352128;32;20066;-66
2020/12/25 01:28:27;;;;;;;8.23;5.53;;;;;;;;;;4377753;32;20461;-67
2020/12/25 01:30:53;;;;;;;9.73;6.80;;;;;;;;;;4364608;32;20082;-67
2020/12/25 01:33:19;;;;;;;9.18;6.22;;;;;;;;;;4341586;32;20578;-66
2020/12/25 01:35:45;;;;;;;10.30;6.85;;;;;;;;;;4349107;32;20212;-66
2020/12/25 01:38:11;;;;;;;9.30;6.22;;;;;;;;;;4343731;32;20515;-66
2020/12/25 01:40:36;;;;;;;10.15;6.43;;;;;;;;;;4336693;32;20070;-67
2020/12/25 01:43:02;;;;;;;10.23;6.82;;;;;;;;;;4349106;32;20095;-66
2020/12/25 01:45:28;;;;;;;;;;;;;;;;;;4363327;32;20098;-66
2020/12/25 01:47:56;;;;;;;9.32;6.53;;;;;;;;;;4363128;32;19989;-66
2020/12/25 01:50:22;;;;;;;10.80;6.68;;;;;;;;;;4324549;32;20085;-66
2020/12/25 01:52:48;;;;;;;10.30;7.50;;;;;;;;;;4348844;32;20077;-66
2020/12/25 01:55:14;;;;;;;10.02;7.07;;;;;;;;;;4349086;32;20066;-66
2020/12/25 01:57:42;;;;;;;9.75;6.60;;;;;;;;;;4349003;32;20164;-66
2020/12/25 02:00:08;;;;;;;11.32;7.37;;;;;;;;;;4336625;32;20489;-67
2020/12/25 02:02:34;;;;;;;9.82;6.72;;;;;;;;;;4336408;32;20073;-67
2020/12/25 02:04:59;;;;;;;11.52;7.53;;;;;;;;;;4336847;32;20154;-65
2020/12/25 02:07:26;;;;;;;10.45;6.97;;;;;;;;;;4336603;32;20179;-66
2020/12/25 02:09:51;;;;;;;10.15;7.32;;;;;;;;;;4348765;32;20087;-65
2020/12/25 02:12:17;;;;;;;10.63;7.47;;;;;;;;;;4348867;32;20478;-66
2020/12/25 02:14:43;;;;;;;;;;;;;;;;;;4350651;32;20145;-66
2020/12/25 02:17:08;;;;;;;9.52;6.78;;;;;;;;;;4355812;32;19981;-66
2020/12/25 02:19:38;;;;;;;10.48;7.00;;;;;;;;;;4349325;32;20571;-66
2020/12/25 02:22:03;;;;;;;11.27;7.18;;;;;;;;;;4347980;32;20074;-66
2020/12/25 02:24:29;;;;;;;9.77;6.50;;;;;;;;;;4348162;32;20075;-65
2020/12/25 02:26:55;;;;;;;11.23;7.18;;;;;;;;;;4348441;32;20105;-66
2020/12/25 02:29:20;;;;;;;;;;;;;;;;;;4349089;32;20525;-65
2020/12/25 02:31:46;;;;;;;10.07;7.00;;;;;;;;;;4362432;32;20057;-67
2020/12/25 02:34:12;;;;;;;10.75;7.20;;;;;;;;;;4362267;32;20071;-66
2020/12/25 02:36:38;;;;;;;10.32;6.60;;;;;;;;;;4335899;32;20159;-66
2020/12/25 02:39:04;;;;;;;10.13;6.35;;;;;;;;;;4336312;32;20194;-66
2020/12/25 02:41:30;;;;;;;10.13;6.75;;;;;;;;;;4324015;32;20090;-66
2020/12/25 02:43:56;;;;;;;12.13;6.68;;;;;;;;;;4348178;32;20476;-67
2020/12/25 02:46:21;;;;;;;9.65;6.43;;;;;;;;;;4336008;32;20502;-66
2020/12/25 02:48:47;;;;;;;9.73;6.55;;;;;;;;;;4335739;32;20067;-66
2020/12/25 02:51:17;;;;;;;8.95;5.87;;;;;;;;;;4312023;32;20078;-66
2020/12/25 02:53:45;;;;;;;10.68;6.65;;;;;;;;;;4311678;32;20102;-66
2020/12/25 02:56:18;;;;;;;10.95;6.70;;;;;;;;;;4323228;32;20525;-66
2020/12/25 02:58:47;;;;;;;8.70;6.35;;;;;;;;;;4311539;32;20073;-66
2020/12/25 03:01:14;;;;;;;8.85;5.85;;;;;;;;;;4348377;32;20090;-67
2020/12/25 03:03:40;;;;;;;10.25;6.37;;;;;;;;;;4323574;32;20082;-66
2020/12/25 03:06:06;;;;;;;10.70;7.25;;;;;;;;;;4335808;32;20074;-67
2020/12/25 03:08:32;;;;;;;10.15;7.53;;;;;;;;;;4336267;32;20075;-65
2020/12/25 03:10:58;;;;;;;12.32;7.57;;;;;;;;;;4362353;32;20294;-66
2020/12/25 03:13:23;;;;;;;10.27;7.12;;;;;;;;;;4323888;32;20082;-66
2020/12/25 03:15:49;;;;;;;10.18;6.82;;;;;;;;;;4347806;32;20494;-66
2020/12/25 03:18:15;;;;;;;;;;;;;;;;;;4348491;32;20067;-65
2020/12/25 03:20:40;;;;;;;11.20;7.30;;;;;;;;;;4347998;32;19981;-66
2020/12/25 03:23:06;;;;;;;11.63;8.07;;;;;;;;;;4361280;32;20154;-67
2020/12/25 03:25:32;;;;;;;10.70;7.37;;;;;;;;;;4362287;32;20063;-66
2020/12/25 03:27:58;;;;;;;9.57;6.75;;;;;;;;;;4347769;32;20521;-66
2020/12/25 03:30:23;;;;;;;12.05;7.28;;;;;;;;;;4360990;32;20171;-66
2020/12/25 03:32:49;;;;;;;9.13;6.72;;;;;;;;;;4347453;32;20081;-66
2020/12/25 03:35:16;;;;;;;10.77;7.32;;;;;;;;;;4347608;32;20083;-65
2020/12/25 03:37:41;;;;;;;10.40;7.18;;;;;;;;;;4347460;32;20086;-65
2020/12/25 03:40:07;;;;;;;11.27;7.32;;;;;;;;;;4347495;32;20323;-66
2020/12/25 03:42:33;;;;;;;11.20;7.85;;;;;;;;;;4347618;32;20085;-66
2020/12/25 03:44:58;;;;;;;10.93;7.50;;;;;;;;;;4347480;32;20086;-67
2020/12/25 03:47:25;;;;;;;11.77;6.97;;;;;;;;;;4362180;32;20070;-66
2020/12/25 03:49:54;;;;;;;11.73;6.82;;;;;;;;;;4337979;32;20085;-68
2020/12/25 03:52:23;;;;;;;11.48;7.70;;;;;;;;;;4350800;32;20082;-67
2020/12/25 03:54:49;;;;;;;10.10;6.78;;;;;;;;;;4326587;32;20167;-66
2020/12/25 03:57:15;;;;;;;11.38;6.82;;;;;;;;;;4325626;32;20075;-66
2020/12/25 03:59:40;;;;;;;12.13;8.52;;;;;;;;;;4365559;32;20085;-67
2020/12/25 04:02:06;;;;;;;11.18;7.25;;;;;;;;;;4352036;32;20059;-66
2020/12/25 04:04:32;;;;;;;11.52;7.53;;;;;;;;;;4351592;32;20063;-67
2020/12/25 04:06:57;;;;;;;;;;;;;;;;;;4348288;32;20086;-67
2020/12/25 04:09:23;;;;;;;11.25;6.72;;;;;;;;;;4348278;32;20029;-66
2020/12/25 04:11:49;;;;;;;11.18;6.75;;;;;;;;;;4335870;32;20067;-66
2020/12/25 04:14:16;;;;;;;10.27;6.78;;;;;;;;;;4323261;32;20154;-66
2020/12/25 04:16:42;;;;;;;11.07;7.07;;;;;;;;;;4324947;32;20152;-66
2020/12/25 04:19:08;;;;;;;11.70;7.18;;;;;;;;;;4364440;32;20086;-67
2020/12/25 04:21:34;;;;;;;10.55;7.00;;;;;;;;;;4322470;32;20163;-67
2020/12/25 04:24:00;;;;;;;11.15;7.68;;;;;;;;;;4322920;32;20066;-66
2020/12/25 04:26:25;;;;;;;11.63;7.35;;;;;;;;;;4347431;32;20085;-68
2020/12/25 04:28:51;;;;;;;11.15;7.10;;;;;;;;;;4360912;32;20090;-66
2020/12/25 04:31:17;;;;;;;;;;;;;;;;;;4335381;32;20157;-65
2020/12/25 04:33:43;;;;;;;11.18;6.45;;;;;;;;;;4335204;32;19962;-66
2020/12/25 04:36:08;;;;;;;10.13;6.40;;;;;;;;;;4360794;32;20086;-67
2020/12/25 04:38:34;;;;;;;;;;;;;;;;;;4347662;32;20090;-65
2020/12/25 04:41:01;;;;;;;11.52;6.57;;;;;;;;;;4334856;32;19977;-67
2020/12/25 04:43:26;;;;;;;11.65;7.10;;;;;;;;;;4337705;32;20150;-67
2020/12/25 04:45:55;;;;;;;9.88;6.60;;;;;;;;;;4337791;32;20081;-66
2020/12/25 04:48:21;;;;;;;9.18;6.45;;;;;;;;;;4337880;32;20445;-67
2020/12/25 04:51:27;;;;;;;10.82;6.62;;;;;;;;;;4313277;32;20107;-66
2020/12/25 04:54:33;;;;;;;10.50;6.62;;;;;;;;;;4363575;32;20074;-66
2020/12/25 04:57:39;;;;;;;10.98;6.20;;;;;;;;;;4363914;32;20077;-66
2020/12/25 05:00:21;;;;;;;9.95;5.68;;;;;;;;;;4363943;32;20058;-66
2020/12/25 05:02:48;;;;;;;11.90;7.70;;;;;;;;;;4325006;32;20612;-67
2020/12/25 05:05:34;;;;;;;12.45;8.05;;;;;;;;;;4337140;32;20078;-66
2020/12/25 05:08:00;;;;;;;12.13;7.45;;;;;;;;;;4337490;32;20074;-67
2020/12/25 05:10:27;;;;;;;10.25;6.90;;;;;;;;;;4324676;32;20086;-66
2020/12/25 05:12:53;;;;;;;10.55;6.72;;;;;;;;;;4337452;32;20074;-66
2020/12/25 05:15:18;;;;;;;10.60;6.95;;;;;;;;;;4349504;32;20149;-67
2020/12/25 05:17:45;;;;;;;12.23;7.37;;;;;;;;;;4349680;32;20074;-66
2020/12/25 05:20:10;;;;;;;10.93;7.00;;;;;;;;;;4349994;32;20066;-66
2020/12/25 05:22:36;;;;;;;10.40;6.80;;;;;;;;;;4349015;32;20187;-66
2020/12/25 05:25:04;;;;;;;11.40;7.00;;;;;;;;;;4337286;32;20512;-66
2020/12/25 05:27:30;;;;;;;10.13;6.20;;;;;;;;;;4324788;32;20083;-66
2020/12/25 05:30:00;;;;;;;12.63;7.20;;;;;;;;;;4324649;32;20106;-67
2020/12/25 05:32:30;;;;;;;11.98;7.47;;;;;;;;;;4349547;32;20185;-66
2020/12/25 05:34:57;;;;;;;11.32;6.93;;;;;;;;;;4324757;32;20098;-67
2020/12/25 05:37:33;;;;;;;11.73;6.53;;;;;;;;;;4326296;32;20088;-67
2020/12/25 05:40:01;;;;;;;10.73;6.22;;;;;;;;;;4336762;32;20074;-66
2020/12/25 05:42:26;;;;;;;11.73;6.53;;;;;;;;;;4336934;32;20071;-66
2020/12/25 05:44:52;;;;;;;10.63;6.53;;;;;;;;;;4362432;32;20158;-66
2020/12/25 05:47:18;;;;;;;;;;;;;;;;;;4349636;32;20109;-66
2020/12/25 05:49:44;;;;;;;11.70;6.68;;;;;;;;;;4349237;32;19974;-65
2020/12/25 05:52:12;;;;;;;8.70;4.60;;;;;;;;;;4348636;32;20224;-66
2020/12/25 05:55:18;;;;;;;8.50;4.43;;;;;;;;;;4336622;32;20071;-67
2020/12/25 05:58:26;;;;;;;10.43;6.57;;;;;;;;;;4363084;32;20066;-66
2020/12/25 06:01:31;;;;;;;11.00;6.47;;;;;;;;;;4362966;32;20093;-66
2020/12/25 06:03:57;;;;;;;11.00;6.70;;;;;;;;;;4362772;32;20137;-66
2020/12/25 06:06:23;;;;;;;11.40;6.43;;;;;;;;;;4323774;32;20112;-66
2020/12/25 06:08:49;;;;;;;13.10;6.57;;;;;;;;;;4336289;32;20066;-67
2020/12/25 06:11:15;;;;;;;11.73;6.22;;;;;;;;;;4362205;32;20164;-66
2020/12/25 06:13:40;;;;;;;;;;;;;;;;;;4336650;32;20157;-66
2020/12/25 06:16:14;;;;;;;12.02;7.03;;;;;;;;;;4336190;32;19962;-67
2020/12/25 06:19:00;;;;;;;13.77;7.85;;;;;;;;;;4346708;32;20464;-66
2020/12/25 06:21:51;;;;;;;13.07;7.87;;;;;;;;;;4364323;32;20523;-66
2020/12/25 06:24:18;;;;;;;13.07;8.55;;;;;;;;;;4342923;32;20102;-67
2020/12/25 06:26:43;;;;;;;12.37;7.82;;;;;;;;;;4336442;32;20152;-66
2020/12/25 06:29:16;;;;;;;13.05;7.55;;;;;;;;;;4324541;32;20082;-65
2020/12/25 06:31:48;;;;;;;12.75;7.65;;;;;;;;;;4344754;32;20070;-70
2020/12/25 06:34:13;;;;;;;12.10;7.18;;;;;;;;;;4322707;32;20145;-70
2020/12/25 06:36:44;;;;;;;12.57;7.47;;;;;;;;;;4355451;32;20530;-69
2020/12/25 06:39:11;;;;;;;11.50;6.95;;;;;;;;;;4336022;32;20122;-70
2020/12/25 06:41:37;;;;;;;12.60;6.10;;;;;;;;;;4333884;32;20093;-72
2020/12/25 06:44:07;;;;;;;12.40;6.85;;;;;;;;;;4347867;32;20086;-71
2020/12/25 06:46:34;;;;;;;10.80;6.75;;;;;;;;;;4340750;32;20086;-71
2020/12/25 06:49:02;;;;;;;13.75;7.30;;;;;;;;;;4323386;32;20085;-71
2020/12/25 06:51:29;;;;;;;12.77;8.18;;;;;;;;;;4336275;32;20105;-70
2020/12/25 06:53:57;;;;;;;15.05;7.72;;;;;;;;;;4361872;32;20163;-71
2020/12/25 06:56:23;;;;;;;11.85;7.32;;;;;;;;;;4335792;32;20445;-71
2020/12/25 06:58:55;;;;;;;11.68;6.70;;;;;;;;;;4342410;32;20085;-71
2020/12/25 07:01:37;;;;;;;12.35;7.70;;;;;;;;;;4323527;32;20070;-69
2020/12/25 07:04:04;;;;;;;10.70;6.18;;;;;;;;;;4339392;32;20138;-71
2020/12/25 07:06:33;;;;;;;12.30;7.65;;;;;;;;;;4346473;32;20098;-68
2020/12/25 07:09:09;;;;;;;11.27;7.25;;;;;;;;;;4344675;32;20438;-69
2020/12/25 07:11:35;;;;;;;12.57;7.70;;;;;;;;;;4337974;32;20535;-69
2020/12/25 07:14:01;;;;;;;12.15;7.68;;;;;;;;;;4362864;32;20082;-68
2020/12/25 07:16:27;;;;;;;12.70;6.85;;;;;;;;;;4376233;32;20515;-70
2020/12/25 07:18:52;;;;;;;12.63;7.03;;;;;;;;;;4363060;32;20088;-70
2020/12/25 07:21:18;;;;;;;12.48;7.60;;;;;;;;;;4364673;32;20089;-69
2020/12/25 07:23:45;;;;;;;12.13;8.18;;;;;;;;;;4335108;33;20056;-67
2020/12/25 07:26:12;;;;;;;12.35;7.78;;;;;;;;;;4310488;33;20082;-68
2020/12/25 07:28:38;;;;;;;12.13;7.53;;;;;;;;;;4323890;33;20171;-68
2020/12/25 07:31:04;;;;;;;13.57;9.15;;;;;;;;;;4309684;33;20097;-69
2020/12/25 07:33:34;;;;;;;12.10;7.85;;;;;;;;;;4311715;33;20074;-70
2020/12/25 07:36:01;;;;;;;12.98;7.53;;;;;;;;;;4336142;33;20086;-73
2020/12/25 07:38:28;;;;;;;12.35;7.35;;;;;;;;;;4317929;33;20071;-67
2020/12/25 07:40:54;;;;;;;11.57;7.10;;;;;;;;;;4294208;33;20070;-66
2020/12/25 07:43:19;;;;;;;12.65;7.50;;;;;;;;;;4305989;33;20161;-67
2020/12/25 07:45:47;;;;;;;13.13;8.88;;;;;;;;;;4329949;33;20086;-68
2020/12/25 07:48:13;;;;;;;12.32;7.68;;;;;;;;;;4330388;33;20107;-67
2020/12/25 07:50:40;;;;;;;12.15;7.22;;;;;;;;;;4330181;33;20457;-70
2020/12/25 07:53:16;;;;;;;14.48;8.20;;;;;;;;;;4305709;33;20075;-69
2020/12/25 07:55:47;;;;;;;12.37;8.18;;;;;;;;;;4306009;33;20495;-69
2020/12/25 07:58:14;;;;;;;11.60;7.12;;;;;;;;;;4318532;33;20237;-67
2020/12/25 08:00:40;;;;;;;13.57;8.55;;;;;;;;;;4312979;33;20063;-70
2020/12/25 08:03:06;;;;;;;13.50;6.95;;;;;;;;;;4345149;33;20142;-68
2020/12/25 08:05:32;;;;;;;12.30;7.72;;;;;;;;;;4346537;32;20445;-68
2020/12/25 08:07:58;;;;;;;13.25;8.20;;;;;;;;;;4320539;33;20094;-69
2020/12/25 08:10:23;;;;;;;13.50;7.75;;;;;;;;;;4344932;33;20098;-70
2020/12/25 08:12:50;;;;;;;13.30;8.43;;;;;;;;;;4332604;33;20145;-68
2020/12/25 08:15:20;;;;;;;12.23;7.62;;;;;;;;;;4332507;33;20071;-70
2020/12/25 08:17:50;;;;;;;13.23;7.72;;;;;;;;;;4324364;33;20080;-70
2020/12/25 08:20:16;;;;;;;12.07;7.55;;;;;;;;;;4344841;33;20067;-67
2020/12/25 08:22:41;;;;;;;12.23;7.43;;;;;;;;;;4334137;33;20082;-69
2020/12/25 08:25:07;;;;;;;12.68;7.70;;;;;;;;;;4347260;33;20086;-71
2020/12/25 08:27:34;;;;;;;12.07;7.65;;;;;;;;;;4335261;33;20172;-68
2020/12/25 08:30:40;;;;;;;11.93;7.65;;;;;;;;;;4347708;32;20098;-69
2020/12/25 08:33:46;;;;;;;11.77;7.53;;;;;;;;;;4334036;33;20071;-68
2020/12/25 08:36:52;;;;;;;11.88;7.12;;;;;;;;;;4334590;33;20059;-67
2020/12/25 08:40:53;;;;;;;11.48;6.85;;;;;;;;;;3857905;37;20081;-66
2020/12/25 08:43:20;;;;;;;10.82;7.10;;;;;;;;;;4420159;32;20161;-68
2020/12/25 08:46:01;;;;;;;12.35;6.78;;;;;;;;;;4418358;32;20515;-68
2020/12/25 08:48:27;;;;;;;10.00;6.12;;;;;;;;;;4394056;32;20097;-70
2020/12/25 08:51:09;;;;;;;9.18;5.62;;;;;;;;;;4397397;32;20444;-67
2020/12/25 08:53:36;;;;;;;10.32;5.32;;;;;;;;;;4377864;32;20086;-67
2020/12/25 08:56:16;;;;;;;11.25;5.45;;;;;;;;;;4378085;32;20092;-67
2020/12/25 08:59:00;;;;;;;11.80;5.95;;;;;;;;;;4391194;32;20558;-68
2020/12/25 09:01:27;;;;;;;11.32;6.95;;;;;;;;;;4391363;32;20593;-68
2020/12/25 09:03:53;;;;;;;12.90;6.72;;;;;;;;;;4403426;32;20073;-67
2020/12/25 09:06:18;;;;;;;;;;;;;;;;;;4403936;32;20061;-68
2020/12/25 09:08:44;;;;;;;10.25;6.55;;;;;;;;;;4390411;32;20102;-65
2020/12/25 09:11:11;;;;;;;9.85;6.07;;;;;;;;;;4390212;32;20575;-67
2020/12/25 09:13:37;;;;;;;9.30;5.93;;;;;;;;;;4378049;32;20089;-68
2020/12/25 09:16:03;;;;;;;;;;;;;;;;;;4390721;32;20471;-66
2020/12/25 09:18:29;;;;;;;10.80;7.37;;;;;;;;;;4414759;32;19969;-67
2020/12/25 09:20:55;;;;;;;12.50;7.45;;;;;;;;;;4402699;32;20164;-71
2020/12/25 09:23:21;;;;;;;10.13;5.95;;;;;;;;;;4402747;32;20167;-65
2020/12/25 09:25:46;;;;;;;9.85;6.25;;;;;;;;;;4402521;32;20185;-68
2020/12/25 09:28:12;;;;;;;9.90;5.85;;;;;;;;;;4390102;32;20092;-67
2020/12/25 09:30:38;;;;;;;10.45;6.65;;;;;;;;;;4404634;32;20069;-66
2020/12/25 09:33:04;;;;;;;9.00;4.40;;;;;;;;;;4391843;32;20077;-68
2020/12/25 09:35:29;;;;;;;9.90;6.62;;;;;;;;;;4417519;32;20169;-66
2020/12/25 09:37:55;;;;;;;9.40;5.40;;;;;;;;;;4409850;32;20096;-66
2020/12/25 09:40:21;;;;;;;11.25;6.28;;;;;;;;;;4389946;32;20093;-66
2020/12/25 09:42:47;;;;;;;8.82;5.78;;;;;;;;;;4378033;32;20153;-68
2020/12/25 09:45:13;;;;;;;8.95;5.43;;;;;;;;;;4402096;32;20077;-74
2020/12/25 09:47:38;;;;;;;10.80;5.07;;;;;;;;;;4411679;32;20100;-66
2020/12/25 09:50:04;;;;;;;9.10;5.40;;;;;;;;;;4416665;32;20069;-65
2020/12/25 09:52:30;;;;;;;9.20;5.85;;;;;;;;;;4394403;32;20081;-66
2020/12/25 09:54:55;;;;;;;10.77;5.90;;;;;;;;;;4406505;32;20506;-65
2020/12/25 09:57:22;;;;;;;10.15;5.32;;;;;;;;;;4407498;32;20089;-67
2020/12/25 09:59:48;;;;;;;9.35;5.22;;;;;;;;;;4382097;32;20062;-67
2020/12/25 10:02:14;;;;;;;9.48;5.80;;;;;;;;;;4393987;32;20593;-66
2020/12/25 10:04:39;;;;;;;9.30;5.30;;;;;;;;;;4407208;32;20211;-66
2020/12/25 10:07:05;;;;;;;11.18;6.50;;;;;;;;;;4394306;32;20511;-67
2020/12/25 10:09:31;;;;;;;9.52;6.07;;;;;;;;;;4408680;32;20062;-66
2020/12/25 10:11:57;;;;;;;8.93;5.78;;;;;;;;;;4408607;32;20101;-66
2020/12/25 10:14:22;;;;;;;8.27;5.80;;;;;;;;;;4407071;32;20515;-67
2020/12/25 10:16:48;;;;;;;9.05;5.93;;;;;;;;;;4382128;32;20085;-66
2020/12/25 10:19:14;;;;;;;9.80;5.70;;;;;;;;;;4397824;32;20081;-66
2020/12/25 10:21:40;;;;;;;9.48;5.75;;;;;;;;;;4394543;32;20086;-66
2020/12/25 10:24:06;;;;;;;9.07;5.82;;;;;;;;;;4394513;32;20080;-66
2020/12/25 10:26:32;;;;;;;9.85;5.45;;;;;;;;;;4394500;32;20085;-67
2020/12/25 10:28:57;;;;;;;9.68;5.18;;;;;;;;;;4393033;32;20500;-68
2020/12/25 10:31:23;;;;;;;9.15;5.40;;;;;;;;;;4398322;32;20112;-69
2020/12/25 10:33:49;;;;;;;10.60;6.43;;;;;;;;;;4404643;32;20073;-67
2020/12/25 10:36:15;;;;;;;9.40;6.12;;;;;;;;;;4394598;32;20069;-65
2020/12/25 10:38:40;;;;;;;9.15;6.32;;;;;;;;;;4394184;32;20492;-67
2020/12/25 10:41:08;;;;;;;9.32;5.78;;;;;;;;;;4355752;32;20206;-67
2020/12/25 10:43:35;;;;;;;8.55;5.35;;;;;;;;;;4385258;32;20069;-70
2020/12/25 10:46:00;;;;;;;9.35;5.43;;;;;;;;;;4383065;32;20089;-70
2020/12/25 10:48:26;;;;;;;8.98;5.12;;;;;;;;;;4383363;32;20070;-69
2020/12/25 10:51:32;;;;;;;8.60;5.30;;;;;;;;;;4397404;32;20082;-73
2020/12/25 10:54:38;;;;;;;9.38;6.15;;;;;;;;;;4397694;32;20063;-68
2020/12/25 10:57:44;;;;;;;8.57;5.22;;;;;;;;;;4401307;32;20078;-69
2020/12/25 11:00:10;;;;;;;7.72;5.15;;;;;;;;;;4404451;32;20065;-68
2020/12/25 11:02:35;;;;;;;10.75;5.85;;;;;;;;;;4402098;32;20073;-70
2020/12/25 11:05:01;;;;;;;9.95;5.85;;;;;;;;;;4402630;32;20073;-68
2020/12/25 11:07:27;;;;;;;8.35;4.90;;;;;;;;;;4406839;32;20069;-70
2020/12/25 11:09:54;;;;;;;9.13;5.47;;;;;;;;;;4390745;32;20073;-69
2020/12/25 11:12:20;;;;;;;8.70;5.35;;;;;;;;;;4396608;32;20085;-69
2020/12/25 11:14:45;;;;;;;10.23;6.07;;;;;;;;;;4412664;32;20066;-71
2020/12/25 11:17:13;;;;;;;8.82;5.45;;;;;;;;;;4384742;32;20170;-70
2020/12/25 11:19:38;;;;;;;8.80;5.00;;;;;;;;;;4405020;32;20085;-70
2020/12/25 11:22:04;;;;;;;9.38;5.43;;;;;;;;;;4379145;32;20511;-67
2020/12/25 11:24:30;;;;;;;7.47;4.10;;;;;;;;;;4402102;32;20072;-71
2020/12/25 11:26:55;;;;;;;10.45;5.97;;;;;;;;;;4407656;32;20097;-72
2020/12/25 11:29:21;;;;;;;8.90;5.50;;;;;;;;;;4381193;32;20077;-69
2020/12/25 11:31:47;;;;;;;9.75;6.20;;;;;;;;;;4386456;32;20089;-70
2020/12/25 11:34:12;;;;;;;9.10;5.90;;;;;;;;;;4407213;32;20081;-70
2020/12/25 11:36:38;;;;;;;9.85;6.60;;;;;;;;;;4407157;32;20065;-72
2020/12/25 11:39:05;;;;;;;9.27;5.72;;;;;;;;;;4380144;32;20159;-72
2020/12/25 11:41:31;;;;;;;10.48;6.45;;;;;;;;;;4394020;32;20073;-68
2020/12/25 11:43:56;;;;;;;8.75;5.68;;;;;;;;;;4393018;32;20080;-68
2020/12/25 11:46:25;;;;;;;9.00;5.75;;;;;;;;;;4393396;32;20517;-71
2020/12/25 11:48:53;;;;;;;10.70;6.22;;;;;;;;;;4381210;32;20153;-72
2020/12/25 11:51:21;;;;;;;8.82;5.57;;;;;;;;;;4392913;32;20102;-70
2020/12/25 11:53:47;;;;;;;9.52;6.07;;;;;;;;;;4380734;32;20095;-68
2020/12/25 11:56:17;;;;;;;8.77;6.22;;;;;;;;;;4379913;32;20179;-72
2020/12/25 11:58:43;;;;;;;9.10;6.00;;;;;;;;;;4393367;32;20061;-72
2020/12/25 12:01:08;;;;;;;8.70;5.40;;;;;;;;;;4392926;32;20069;-71
2020/12/25 12:03:34;;;;;;;9.18;6.03;;;;;;;;;;4405460;32;20065;-71
2020/12/25 12:06:00;;;;;;;9.70;6.37;;;;;;;;;;4392443;32;20444;-72
2020/12/25 12:08:26;;;;;;;7.97;5.37;;;;;;;;;;4393028;32;20089;-70
2020/12/25 12:10:52;;;;;;;9.75;5.65;;;;;;;;;;4392833;32;20097;-72
2020/12/25 12:13:17;;;;;;;9.30;4.85;;;;;;;;;;4367693;32;20481;-72
2020/12/25 12:15:43;;;;;;;8.25;5.47;;;;;;;;;;4405731;32;20076;-70
2020/12/25 12:18:09;;;;;;;7.97;5.28;;;;;;;;;;4393995;32;20147;-71
2020/12/25 12:20:35;;;;;;;7.97;5.18;;;;;;;;;;4403026;32;20085;-74
2020/12/25 12:23:02;;;;;;;9.15;5.90;;;;;;;;;;4388087;32;20103;-69
2020/12/25 12:25:28;;;;;;;8.45;5.65;;;;;;;;;;4398461;32;20084;-70
2020/12/25 12:27:53;;;;;;;8.23;5.40;;;;;;;;;;4401631;32;20077;-71
2020/12/25 12:30:19;;;;;;;7.97;5.03;;;;;;;;;;4392572;32;20077;-73
2020/12/25 12:32:45;;;;;;;8.38;5.47;;;;;;;;;;4390775;32;20077;-71
2020/12/25 12:35:11;;;;;;;8.77;4.93;;;;;;;;;;4369587;32;20058;-68
2020/12/25 12:37:37;;;;;;;8.30;4.97;;;;;;;;;;4395391;32;20154;-70
2020/12/25 12:40:04;;;;;;;7.78;4.97;;;;;;;;;;4393964;32;20168;-69
2020/12/25 12:42:33;;;;;;;7.40;5.00;;;;;;;;;;4385028;32;20487;-70
2020/12/25 12:44:59;;;;;;;6.55;4.30;;;;;;;;;;4396980;32;20072;-71
2020/12/25 12:47:25;;;;;;;7.43;4.60;;;;;;;;;;4382660;32;20132;-68
2020/12/25 12:49:50;;;;;;;7.20;4.68;;;;;;;;;;4388556;32;20544;-69
2020/12/25 12:52:16;;;;;;;7.50;4.90;;;;;;;;;;4390074;32;20082;-71
2020/12/25 12:54:42;;;;;;;6.82;4.60;;;;;;;;;;4401499;32;20097;-72
2020/12/25 12:57:08;;;;;;;6.40;4.80;;;;;;;;;;4404171;32;20082;-70
2020/12/25 12:59:33;;;;;;;6.18;4.65;;;;;;;;;;4394592;32;20058;-72
2020/12/25 13:01:59;;;;;;;6.62;4.47;;;;;;;;;;4390502;32;20094;-69
2020/12/25 13:04:25;;;;;;;6.53;4.68;;;;;;;;;;4379435;32;20074;-73
2020/12/25 13:06:51;;;;;;;6.57;4.70;;;;;;;;;;4380934;32;20090;-73
2020/12/25 13:09:17;;;;;;;6.97;4.57;;;;;;;;;;4377450;32;20106;-72
2020/12/25 13:11:43;;;;;;;6.50;4.82;;;;;;;;;;4378978;32;20101;-71
2020/12/25 13:14:48;;;;;;;6.55;4.22;;;;;;;;;;4375802;32;20488;-72
2020/12/25 13:17:54;;;;;;;6.68;5.10;;;;;;;;;;4399199;32;20074;-71
2020/12/25 13:21:00;;;;;;;6.95;4.55;;;;;;;;;;4406667;32;20187;-72
2020/12/25 13:24:06;;;;;;;7.93;5.35;;;;;;;;;;4405997;32;20112;-75
2020/12/25 13:26:32;;;;;;;8.02;4.60;;;;;;;;;;4380710;32;20097;-73
2020/12/25 13:28:59;;;;;;;7.68;4.45;;;;;;;;;;4395004;32;20572;-74
2020/12/25 13:31:25;;;;;;;7.70;5.12;;;;;;;;;;4408433;32;20066;-73
2020/12/25 13:33:52;;;;;;;7.65;4.30;;;;;;;;;;4370280;32;20109;-72
2020/12/25 13:36:19;;;;;;;7.12;4.62;;;;;;;;;;4369608;32;20528;-73
2020/12/25 13:38:45;;;;;;;7.72;5.05;;;;;;;;;;4381432;32;20077;-74
2020/12/25 13:41:15;;;;;;;6.93;4.32;;;;;;;;;;4394481;32;20082;-72
2020/12/25 13:43:41;;;;;;;6.45;5.00;;;;;;;;;;4388352;32;20516;-74
2020/12/25 13:46:14;;;;;;;6.95;4.45;;;;;;;;;;4391967;32;20174;-74
2020/12/25 13:48:39;;;;;;;6.97;4.82;;;;;;;;;;4367184;32;20081;-74
2020/12/25 13:51:45;;;;;;;7.30;4.70;;;;;;;;;;4392162;32;20085;-72
2020/12/25 13:54:51;;;;;;;7.30;3.80;;;;;;;;;;4405970;32;20090;-73
2020/12/25 13:57:57;;;;;;;6.25;4.37;;;;;;;;;;4408631;32;20090;-73
2020/12/25 14:00:23;;;;;;;5.72;4.03;;;;;;;;;;4395421;32;20078;-75
2020/12/25 14:02:49;;;;;;;6.03;4.43;;;;;;;;;;4369267;32;20070;-72
2020/12/25 14:05:14;;;;;;;5.75;4.00;;;;;;;;;;4403704;32;20108;-72
2020/12/25 14:07:40;;;;;;;5.78;3.87;;;;;;;;;;4406354;32;20456;-72
2020/12/25 14:10:06;;;;;;;5.10;4.03;;;;;;;;;;4381986;32;20100;-71
2020/12/25 14:12:32;;;;;;;5.68;3.78;;;;;;;;;;4393865;32;20164;-73
2020/12/25 14:14:57;;;;;;;6.00;4.05;;;;;;;;;;4394170;32;20085;-71
2020/12/25 14:17:23;;;;;;;5.87;4.25;;;;;;;;;;4389132;32;20091;-71
2020/12/25 14:19:49;;;;;;;5.22;3.50;;;;;;;;;;4391945;32;20069;-72
2020/12/25 14:22:14;;;;;;;5.53;4.07;;;;;;;;;;4408113;32;20093;-72
2020/12/25 14:24:40;;;;;;;6.82;4.43;;;;;;;;;;4378728;32;20958;-73
2020/12/25 14:27:46;;;;;;;5.97;4.15;;;;;;;;;;4378991;32;20060;-71
2020/12/25 14:30:53;;;;;;;6.50;4.25;;;;;;;;;;4405571;32;20093;-73
2020/12/25 14:33:59;;;;;;;6.40;4.47;;;;;;;;;;4408052;32;20065;-72
2020/12/25 14:36:25;;;;;;;6.43;4.05;;;;;;;;;;4401125;32;20515;-70
2020/12/25 14:38:51;;;;;;;6.80;3.97;;;;;;;;;;4391982;32;20085;-70
2020/12/25 14:41:23;;;;;;;6.07;3.90;;;;;;;;;;4407390;32;20192;-71
2020/12/25 14:43:49;;;;;;;7.03;4.55;;;;;;;;;;4390443;32;20066;-70
2020/12/25 14:46:15;;;;;;;6.78;4.20;;;;;;;;;;4392750;32;20101;-70
2020/12/25 14:48:41;;;;;;;6.20;4.20;;;;;;;;;;4378051;32;20111;-70
2020/12/25 14:51:07;;;;;;;6.37;3.92;;;;;;;;;;4399127;32;20073;-71
2020/12/25 14:53:33;;;;;;;5.68;4.30;;;;;;;;;;4391375;32;20096;-72